createdAt,value
2019-01-06T00:01:14.609Z,7.16
2019-01-06T00:04:14.917Z,7.20
2019-01-06T00:07:22.308Z,7.10
2019-01-06T00:10:22.607Z,7.10
2019-01-06T00:13:30.033Z,7.07
2019-01-06T00:16:36.488Z,7.18
2019-01-06T00:19:43.991Z,7.17
2019-01-06T00:22:43.933Z,7.14
2019-01-06T00:25:51.495Z,7.11
2019-01-06T00:28:52.449Z,7.17
2019-01-06T00:31:53.136Z,7.13
2019-01-06T00:34:53.508Z,7.15
2019-01-06T00:37:56.577Z,7.14
2019-01-06T00:40:59.668Z,7.03
2019-01-06T00:44:07.077Z,7.07
2019-01-06T00:47:07.850Z,7.12
2019-01-06T00:50:15.168Z,7.20
2019-01-06T00:53:15.113Z,7.05
2019-01-06T00:56:22.555Z,7.12
2019-01-06T00:59:23.239Z,7.18
2019-01-06T01:02:26.727Z,7.19
2019-01-06T01:05:27.411Z,7.17
2019-01-06T01:08:34.831Z,7.16
2019-01-06T01:11:34.337Z,7.11
2019-01-06T01:14:42.229Z,7.17
2019-01-06T01:17:41.210Z,7.16
2019-01-06T01:20:41.819Z,7.16
2019-01-06T01:23:44.310Z,7.16
2019-01-06T01:26:51.730Z,7.20
2019-01-06T01:29:51.708Z,7.24
2019-01-06T01:32:59.124Z,7.23
2019-01-06T01:36:02.823Z,7.22
2019-01-06T01:39:03.169Z,7.12
2019-01-06T01:42:03.366Z,7.13
2019-01-06T01:45:10.804Z,7.17
2019-01-06T01:47:58.802Z,7.18
2019-01-06T01:51:06.163Z,7.18
2019-01-06T01:54:10.014Z,7.16
2019-01-06T01:57:17.550Z,7.15
2019-01-06T02:00:18.822Z,7.18
2019-01-06T02:03:26.215Z,7.14
2019-01-06T02:06:26.997Z,7.11
2019-01-06T02:09:34.347Z,7.15
2019-01-06T02:12:34.809Z,7.19
2019-01-06T02:15:43.944Z,7.19
2019-01-06T02:18:44.074Z,7.04
2019-01-06T02:21:51.478Z,7.19
2019-01-06T02:24:53.376Z,7.18
2019-01-06T02:28:00.978Z,7.11
2019-01-06T02:31:01.810Z,7.09
2019-01-06T02:34:09.639Z,7.14
2019-01-06T02:37:10.208Z,7.04
2019-01-06T02:40:09.152Z,7.11
2019-01-06T02:43:10.305Z,7.06
2019-01-06T02:46:17.848Z,7.14
2019-01-06T02:49:19.014Z,7.04
2019-01-06T02:52:27.082Z,7.09
2019-01-06T02:55:29.133Z,6.98
2019-01-06T02:58:36.854Z,7.00
2019-01-06T03:01:37.310Z,7.08
2019-01-06T03:04:44.836Z,7.09
2019-01-06T03:07:38.831Z,7.08
2019-01-06T03:10:46.413Z,6.97
2019-01-06T03:13:47.343Z,7.07
2019-01-06T03:16:54.873Z,7.07
2019-01-06T03:19:53.241Z,7.07
2019-01-06T03:23:00.181Z,7.11
2019-01-06T03:26:03.110Z,7.17
2019-01-06T03:29:10.500Z,7.14
2019-01-06T03:32:11.491Z,7.19
2019-01-06T03:35:18.963Z,7.08
2019-01-06T03:38:19.577Z,7.13
2019-01-06T03:41:27.126Z,7.03
2019-01-06T03:44:27.925Z,7.02
2019-01-06T03:47:35.810Z,7.01
2019-01-06T03:50:36.479Z,7.13
2019-01-06T03:53:45.862Z,7.09
2019-01-06T03:56:46.743Z,7.08
2019-01-06T03:59:54.151Z,7.14
2019-01-06T04:02:52.492Z,7.14
2019-01-06T04:06:01.579Z,7.17
2019-01-06T04:09:02.027Z,7.13
2019-01-06T04:12:09.421Z,7.16
2019-01-06T04:15:11.242Z,7.02
2019-01-06T04:18:19.173Z,7.13
2019-01-06T04:21:19.593Z,7.12
2019-01-06T04:24:27.105Z,7.15
2019-01-06T04:27:27.768Z,7.10
2019-01-06T04:30:35.166Z,7.04
2019-01-06T04:33:36.217Z,7.10
2019-01-06T04:36:43.583Z,7.05
2019-01-06T04:39:49.430Z,7.06
2019-01-06T04:42:56.931Z,6.90
2019-01-06T04:45:58.170Z,6.96
2019-01-06T04:49:06.320Z,6.92
2019-01-06T04:52:06.397Z,6.86
2019-01-06T04:55:13.852Z,6.93
2019-01-06T04:58:13.873Z,6.97
2019-01-06T05:01:21.370Z,6.93
2019-01-06T05:07:27.710Z,6.93
2019-01-06T05:10:27.691Z,7.01
2019-01-06T05:13:35.092Z,7.03
2019-01-06T05:16:35.942Z,7.06
2019-01-06T05:19:43.573Z,7.02
2019-01-06T05:22:44.380Z,7.05
2019-01-06T05:25:51.789Z,7.13
2019-01-06T05:28:51.828Z,7.09
2019-01-06T05:31:59.222Z,7.08
2019-01-06T05:35:00.454Z,6.98
2019-01-06T05:38:08.223Z,7.07
2019-01-06T05:41:14.436Z,7.02
2019-01-06T05:44:21.928Z,7.04
2019-01-06T05:47:27.948Z,7.06
2019-01-06T05:50:26.234Z,7.04
2019-01-06T05:53:32.536Z,6.99
2019-01-06T05:56:41.735Z,7.03
2019-01-06T05:59:34.523Z,6.98
2019-01-06T06:02:42.085Z,6.93
2019-01-06T06:05:42.490Z,6.95
2019-01-06T06:08:49.753Z,7.04
2019-01-06T06:11:52.772Z,6.97
2019-01-06T06:15:00.321Z,6.92
2019-01-06T06:18:05.285Z,7.06
2019-01-06T06:21:10.199Z,7.04
2019-01-06T06:24:10.958Z,7.04
2019-01-06T06:27:18.486Z,6.96
2019-01-06T06:30:19.107Z,6.88
2019-01-06T06:33:26.727Z,6.83
2019-01-06T06:36:30.325Z,6.85
2019-01-06T06:39:30.465Z,6.90
2019-01-06T06:42:18.451Z,6.85
2019-01-06T06:45:19.529Z,6.80
2019-01-06T06:48:27.009Z,6.94
2019-01-06T06:51:30.661Z,6.89
2019-01-06T06:54:38.512Z,6.85
2019-01-06T06:57:59.590Z,6.84
2019-01-06T07:01:19.685Z,6.92
2019-01-06T07:04:27.348Z,6.82
2019-01-06T07:07:27.671Z,6.80
2019-01-06T07:10:35.487Z,6.81
2019-01-06T07:13:41.046Z,6.79
2019-01-06T07:17:26.818Z,6.86
2019-01-06T07:20:27.490Z,6.84
2019-01-06T07:23:30.629Z,6.91
2019-01-06T07:26:38.047Z,6.88
2019-01-06T07:29:38.019Z,6.92
2019-01-06T07:32:45.476Z,6.89
2019-01-06T07:35:49.303Z,6.85
2019-01-06T07:38:52.429Z,6.85
2019-01-06T07:41:52.679Z,6.82
2019-01-06T07:45:00.280Z,6.75
2019-01-06T07:48:00.990Z,6.82
2019-01-06T07:51:08.362Z,6.91
2019-01-06T07:54:04.270Z,6.93
2019-01-06T07:57:11.740Z,6.82
2019-01-06T08:00:15.455Z,6.86
2019-01-06T08:03:31.867Z,6.91
2019-01-06T08:06:38.404Z,6.96
2019-01-06T08:09:45.865Z,6.92
2019-01-06T08:12:37.898Z,6.85
2019-01-06T08:15:46.992Z,6.90
2019-01-06T08:18:45.508Z,6.82
2019-01-06T08:21:53.298Z,6.94
2019-01-06T08:24:53.614Z,6.92
2019-01-06T08:28:01.017Z,6.93
2019-01-06T08:31:07.061Z,6.94
2019-01-06T08:34:16.313Z,6.91
2019-01-06T08:37:16.563Z,6.92
2019-01-06T08:40:17.129Z,6.84
2019-01-06T08:43:17.144Z,6.90
2019-01-06T08:46:24.846Z,6.84
2019-01-06T08:49:25.615Z,7.02
2019-01-06T08:52:33.234Z,7.07
2019-01-06T08:55:33.713Z,6.89
2019-01-06T08:58:41.294Z,6.95
2019-01-06T09:01:29.252Z,6.76
2019-01-06T09:04:36.679Z,6.91
2019-01-06T09:07:24.650Z,7.02
2019-01-06T09:10:32.129Z,7.12
2019-01-06T09:13:34.055Z,7.08
2019-01-06T09:16:41.894Z,7.27
2019-01-06T09:19:40.189Z,7.39
2019-01-06T09:22:47.682Z,7.33
2019-01-06T09:25:44.530Z,7.35
2019-01-06T09:28:44.894Z,7.54
2019-01-06T09:31:52.353Z,7.55
2019-01-06T09:34:57.377Z,7.41
2019-01-06T09:38:04.694Z,7.33
2019-01-06T09:41:05.626Z,7.49
2019-01-06T09:44:13.716Z,7.36
2019-01-06T09:47:21.880Z,7.44
2019-01-06T09:50:22.295Z,7.37
2019-01-06T09:53:29.574Z,7.40
2019-01-06T09:56:29.705Z,7.41
2019-01-06T09:59:37.093Z,7.38
2019-01-06T10:02:25.117Z,7.50
2019-01-06T10:05:13.285Z,7.44
2019-01-06T10:08:13.371Z,7.45
2019-01-06T10:11:20.801Z,7.38
2019-01-06T10:14:21.635Z,7.62
2019-01-06T10:17:22.876Z,7.36
2019-01-06T10:20:25.970Z,7.40
2019-01-06T10:23:33.397Z,7.44
2019-01-06T10:26:33.699Z,7.44
2019-01-06T10:29:41.125Z,7.45
2019-01-06T10:32:29.112Z,7.32
2019-01-06T10:35:30.222Z,7.56
2019-01-06T10:38:29.376Z,7.46
2019-01-06T10:41:35.849Z,7.36
2019-01-06T10:44:36.483Z,7.55
2019-01-06T10:47:44.580Z,7.39
2019-01-06T10:50:32.999Z,7.47
2019-01-06T10:53:21.309Z,7.48
2019-01-06T10:56:22.104Z,7.53
2019-01-06T10:59:29.555Z,7.53
2019-01-06T11:02:29.778Z,7.58
2019-01-06T11:05:37.164Z,7.59
2019-01-06T11:08:28.425Z,7.58
2019-01-06T11:11:35.860Z,7.46
2019-01-06T11:14:23.905Z,7.50
2019-01-06T11:17:31.313Z,7.50
2019-01-06T11:20:34.797Z,7.43
2019-01-06T11:23:42.135Z,7.45
2019-01-06T11:26:42.685Z,7.29
2019-01-06T11:29:50.067Z,7.29
2019-01-06T11:32:42.836Z,7.22
2019-01-06T11:35:50.319Z,7.42
2019-01-06T11:38:50.765Z,7.45
2019-01-06T11:41:58.144Z,7.33
2019-01-06T11:44:53.421Z,7.42
2019-01-06T11:48:00.939Z,7.40
2019-01-06T11:50:57.339Z,7.33
2019-01-06T11:54:04.688Z,7.36
2019-01-06T11:57:04.934Z,7.40
2019-01-06T12:00:12.351Z,7.36
2019-01-06T12:03:15.268Z,7.44
2019-01-06T12:06:22.547Z,7.46
2019-01-06T12:09:26.693Z,7.45
2019-01-06T12:12:34.031Z,7.57
2019-01-06T12:15:35.285Z,7.61
2019-01-06T12:18:43.208Z,7.46
2019-01-06T12:21:43.703Z,7.58
2019-01-06T12:24:51.129Z,7.72
2019-01-06T12:27:54.753Z,7.66
2019-01-06T12:31:03.930Z,7.62
2019-01-06T12:33:52.306Z,7.46
2019-01-06T12:37:31.032Z,7.74
2019-01-06T12:40:24.969Z,7.76
2019-01-06T12:43:11.838Z,7.80
2019-01-06T12:45:58.698Z,7.69
2019-01-06T12:48:52.525Z,7.70
2019-01-06T12:51:49.541Z,7.79
2019-01-06T12:54:37.466Z,7.84
2019-01-06T12:57:23.882Z,7.69
2019-01-06T13:00:11.968Z,7.67
2019-01-06T13:03:06.083Z,7.59
2019-01-06T13:05:56.622Z,7.62
2019-01-06T13:08:43.374Z,7.60
2019-01-06T13:11:30.332Z,7.60
2019-01-06T13:14:27.785Z,7.49
2019-01-06T13:17:18.628Z,7.64
2019-01-06T13:20:18.710Z,7.52
2019-01-06T13:23:05.868Z,7.55
2019-01-06T13:26:08.820Z,7.43
2019-01-06T13:29:12.058Z,7.46
2019-01-06T13:32:03.044Z,7.38
2019-01-06T13:34:56.672Z,7.46
2019-01-06T13:37:43.457Z,7.37
2019-01-06T13:40:39.473Z,7.37
2019-01-06T13:43:33.176Z,7.41
2019-01-06T13:46:19.843Z,7.45
2019-01-06T13:49:25.759Z,7.35
2019-01-06T13:52:18.951Z,7.39
2019-01-06T13:55:22.387Z,7.30
2019-01-06T13:58:30.562Z,7.29
2019-01-06T14:01:17.076Z,7.28
2019-01-06T14:04:11.479Z,7.27
2019-01-06T14:06:58.547Z,7.30
2019-01-06T14:10:02.221Z,7.20
2019-01-06T14:12:53.093Z,7.25
2019-01-06T14:15:43.805Z,7.14
2019-01-06T14:18:34.498Z,7.15
2019-01-06T14:21:21.398Z,7.16
2019-01-06T14:24:07.695Z,7.15
2019-01-06T14:26:53.969Z,7.21
2019-01-06T14:29:57.344Z,7.25
2019-01-06T14:32:45.537Z,7.24
2019-01-06T14:35:36.075Z,7.33
2019-01-06T14:38:22.722Z,7.27
2019-01-06T14:41:10.687Z,7.28
2019-01-06T14:44:07.766Z,7.18
2019-01-06T14:46:54.437Z,7.24
2019-01-06T14:49:41.947Z,7.29
2019-01-06T14:52:32.993Z,7.33
2019-01-06T14:55:19.705Z,7.26
2019-01-06T14:58:06.208Z,7.29
2019-01-06T15:00:52.838Z,7.26
2019-01-06T15:03:46.784Z,7.33
2019-01-06T15:06:33.248Z,7.25
2019-01-06T15:09:28.244Z,7.35
2019-01-06T15:12:14.892Z,7.34
2019-01-06T15:15:15.234Z,7.33
2019-01-06T15:18:12.665Z,7.18
2019-01-06T15:20:59.165Z,7.32
2019-01-06T15:23:56.362Z,7.20
2019-01-06T15:26:43.077Z,7.32
2019-01-06T15:29:23.313Z,7.32
2019-01-06T15:32:09.791Z,7.36
2019-01-06T15:35:09.553Z,7.40
2019-01-06T15:37:57.715Z,7.32
2019-01-06T15:40:41.793Z,7.35
2019-01-06T15:43:45.072Z,7.18
2019-01-06T15:46:38.906Z,7.36
2019-01-06T15:49:24.879Z,7.32
2019-01-06T15:52:11.774Z,7.28
2019-01-06T15:54:58.312Z,7.32
2019-01-06T15:57:37.188Z,7.33
2019-01-06T16:00:21.824Z,7.31
2019-01-06T16:03:18.958Z,7.29
2019-01-06T16:06:05.433Z,7.31
2019-01-06T16:08:54.783Z,7.25
2019-01-06T16:11:40.162Z,7.30
2019-01-06T16:14:34.264Z,7.36
2019-01-06T16:17:20.858Z,7.24
2019-01-06T16:20:08.085Z,7.28
2019-01-06T16:22:54.746Z,7.36
2019-01-06T16:25:48.256Z,7.32
2019-01-06T16:28:55.042Z,7.14
2019-01-06T16:31:45.977Z,7.30
2019-01-06T16:34:39.759Z,7.15
2019-01-06T16:37:30.673Z,7.19
2019-01-06T16:40:23.513Z,7.22
2019-01-06T16:43:11.332Z,7.20
2019-01-06T16:45:58.281Z,7.19
2019-01-06T16:48:46.915Z,7.11
2019-01-06T16:51:52.512Z,7.12
2019-01-06T16:54:39.200Z,7.06
2019-01-06T16:57:29.722Z,6.97
2019-01-06T17:00:17.924Z,6.78
2019-01-06T17:03:21.051Z,6.89
2019-01-06T17:06:18.399Z,6.92
2019-01-06T17:09:13.783Z,6.91
2019-01-06T17:12:38.302Z,6.86
2019-01-06T17:15:37.327Z,6.87
2019-01-06T17:18:28.963Z,6.90
2019-01-06T17:21:28.854Z,6.84
2019-01-06T17:24:19.402Z,6.88
2019-01-06T17:27:06.143Z,6.86
2019-01-06T17:29:48.389Z,6.90
2019-01-06T17:32:45.228Z,6.84
2019-01-06T17:35:36.556Z,6.87
2019-01-06T17:38:23.060Z,6.92
2019-01-06T17:41:29.934Z,6.89
2019-01-06T17:44:17.614Z,6.78
2019-01-06T17:47:04.818Z,6.96
2019-01-06T17:49:55.854Z,6.96
2019-01-06T17:52:46.639Z,6.95
2019-01-06T17:55:33.305Z,6.97
2019-01-06T17:58:20.004Z,7.02
2019-01-06T18:01:14.077Z,6.99
2019-01-06T18:04:05.271Z,6.84
2019-01-06T18:06:53.116Z,6.87
2019-01-06T18:09:39.711Z,6.87
2019-01-06T18:12:43.170Z,6.75
2019-01-06T18:15:43.732Z,6.82
2019-01-06T18:18:37.400Z,6.77
2019-01-06T18:21:23.850Z,6.83
2019-01-06T18:24:09.844Z,6.79
2019-01-06T18:27:15.407Z,6.80
2019-01-06T18:30:02.147Z,6.79
2019-01-06T18:33:08.120Z,6.78
2019-01-06T18:36:05.280Z,6.77
2019-01-06T18:38:56.134Z,6.74
2019-01-06T18:41:50.461Z,6.77
2019-01-06T18:44:38.896Z,6.55
2019-01-06T18:47:34.630Z,6.60
2019-01-06T18:50:28.610Z,6.67
2019-01-06T18:53:15.804Z,6.61
2019-01-06T18:56:08.538Z,6.61
2019-01-06T18:58:55.164Z,6.72
2019-01-06T19:01:40.131Z,6.72
2019-01-06T19:04:46.429Z,6.67
2019-01-06T19:07:33.857Z,6.65
2019-01-06T19:10:21.947Z,6.71
2019-01-06T19:13:08.330Z,6.72
2019-01-06T19:15:53.071Z,6.64
2019-01-06T19:18:55.916Z,6.58
2019-01-06T19:21:42.149Z,6.60
2019-01-06T19:24:28.776Z,6.70
2019-01-06T19:27:15.481Z,6.54
2019-01-06T19:30:13.013Z,6.58
2019-01-06T19:33:03.929Z,6.54
2019-01-06T19:36:00.633Z,6.68
2019-01-06T19:38:47.255Z,6.52
2019-01-06T19:41:35.455Z,6.53
2019-01-06T19:44:21.943Z,6.54
2019-01-06T19:47:12.666Z,6.62
2019-01-06T19:50:16.001Z,6.66
2019-01-06T19:53:06.670Z,6.69
2019-01-06T19:55:54.265Z,6.72
2019-01-06T19:58:46.859Z,6.73
2019-01-06T20:01:40.534Z,6.76
2019-01-06T20:04:28.678Z,6.70
2019-01-06T20:07:16.679Z,6.68
2019-01-06T20:10:07.683Z,6.69
2019-01-06T20:13:08.070Z,6.59
2019-01-06T20:15:54.634Z,6.65
2019-01-06T20:18:35.505Z,6.72
2019-01-06T20:21:22.205Z,6.71
2019-01-06T20:24:26.359Z,6.78
2019-01-06T20:27:14.445Z,6.73
2019-01-06T20:30:05.041Z,6.75
2019-01-06T20:33:01.937Z,6.72
2019-01-06T20:35:56.230Z,6.65
2019-01-06T20:38:43.161Z,6.75
2019-01-06T20:41:29.230Z,6.70
2019-01-06T20:44:12.388Z,6.82
2019-01-06T20:47:12.731Z,6.81
2019-01-06T20:49:58.429Z,6.85
2019-01-06T20:52:55.349Z,6.67
2019-01-06T20:55:42.334Z,6.70
2019-01-06T20:58:46.347Z,6.80
2019-01-06T21:01:32.841Z,6.81
2019-01-06T21:04:19.143Z,6.82
2019-01-06T21:07:15.780Z,6.82
2019-01-06T21:10:12.392Z,6.95
2019-01-06T21:13:06.504Z,6.81
2019-01-06T21:15:48.202Z,6.81
2019-01-06T21:18:34.615Z,6.87
2019-01-06T21:21:31.485Z,6.87
2019-01-06T21:24:18.131Z,6.88
2019-01-06T21:27:05.312Z,6.91
2019-01-06T21:30:02.513Z,6.94
2019-01-06T21:32:49.706Z,6.92
2019-01-06T21:35:49.881Z,6.82
2019-01-06T21:38:50.289Z,6.92
2019-01-06T21:41:47.808Z,6.79
2019-01-06T21:44:34.497Z,6.71
2019-01-06T21:47:21.265Z,6.82
2019-01-06T21:50:08.190Z,6.80
2019-01-06T21:53:04.997Z,6.80
2019-01-06T21:56:01.787Z,6.82
2019-01-06T21:58:56.384Z,6.85
2019-01-06T22:01:43.184Z,6.83
2019-01-06T22:04:49.655Z,6.74
2019-01-06T22:07:40.187Z,6.77
2019-01-06T22:10:28.344Z,6.62
2019-01-06T22:13:09.091Z,6.76
2019-01-06T22:16:06.694Z,6.82
2019-01-06T22:19:00.357Z,6.76
2019-01-06T22:21:51.157Z,6.77
2019-01-06T22:24:37.615Z,6.83
2019-01-06T22:27:35.323Z,6.82
2019-01-06T22:30:24.065Z,6.80
2019-01-06T22:33:10.589Z,6.72
2019-01-06T22:36:16.540Z,6.77
2019-01-06T22:39:03.631Z,6.71
2019-01-06T22:41:50.351Z,6.72
2019-01-06T22:44:41.461Z,6.75
2019-01-06T22:47:41.540Z,6.61
2019-01-06T22:50:34.852Z,6.74
2019-01-06T22:53:15.293Z,6.71
2019-01-06T22:56:09.033Z,6.78
2019-01-06T22:58:56.309Z,6.75
2019-01-06T23:02:02.833Z,6.71
2019-01-06T23:05:08.816Z,6.67
2019-01-06T23:07:55.698Z,6.76
2019-01-06T23:10:46.685Z,6.81
2019-01-06T23:13:47.897Z,6.73
2019-01-06T23:16:34.270Z,6.78
2019-01-06T23:19:15.751Z,6.75
2019-01-06T23:22:03.728Z,6.80
2019-01-06T23:24:58.023Z,6.68
2019-01-06T23:27:48.681Z,6.72
2019-01-06T23:30:39.906Z,6.75
2019-01-06T23:33:26.494Z,6.53
2019-01-06T23:36:17.198Z,6.68
2019-01-06T23:39:03.846Z,6.75
2019-01-06T23:41:52.016Z,6.69
2019-01-06T23:44:38.901Z,6.68
2019-01-06T23:47:30.434Z,6.70
2019-01-06T23:50:17.242Z,6.75
2019-01-06T23:53:07.973Z,6.64
2019-01-06T23:55:58.862Z,6.59
2019-01-06T23:58:43.390Z,6.60
